createdAt,value
2022-09-27T00:01:16.690Z,19.68
2022-09-27T00:03:43.695Z,19.32
2022-09-27T00:06:20.733Z,19.63
2022-09-27T00:08:47.622Z,19.63
2022-09-27T00:11:30.419Z,19.96
2022-09-27T00:13:59.010Z,19.25
2022-09-27T00:16:35.946Z,19.23
2022-09-27T00:19:06.740Z,19.27
2022-09-27T00:21:34.326Z,22.97
2022-09-27T00:24:01.515Z,20.53
2022-09-27T00:26:29.190Z,19.68
2022-09-27T00:28:56.261Z,18.88
2022-09-27T00:31:32.198Z,19.81
2022-09-27T00:34:01.070Z,19.23
2022-09-27T00:36:29.446Z,19.40
2022-09-27T00:38:56.617Z,19.27
2022-09-27T00:41:34.621Z,18.97
2022-09-27T00:44:26.198Z,19.39
2022-09-27T00:47:21.328Z,18.88
2022-09-27T00:49:56.604Z,19.40
2022-09-27T00:52:46.737Z,19.41
2022-09-27T00:55:19.639Z,18.36
2022-09-27T00:57:47.731Z,17.98
2022-09-27T01:00:16.907Z,17.68
2022-09-27T01:02:51.826Z,17.84
2022-09-27T01:05:23.054Z,18.77
2022-09-27T01:07:50.378Z,17.28
2022-09-27T01:10:19.582Z,18.05
2022-09-27T01:13:10.663Z,16.74
2022-09-27T01:15:57.290Z,17.87
2022-09-27T01:18:54.826Z,17.87
2022-09-27T01:22:03.312Z,25.47
2022-09-27T01:24:55.359Z,22.42
2022-09-27T01:27:31.530Z,20.62
2022-09-27T01:30:21.253Z,21.26
2022-09-27T01:33:05.302Z,20.28
2022-09-27T01:36:05.244Z,18.94
2022-09-27T01:39:10.682Z,19.75
2022-09-27T01:42:18.619Z,19.89
2022-09-27T01:45:02.571Z,19.74
2022-09-27T01:47:44.716Z,19.49
2022-09-27T01:50:45.872Z,18.94
2022-09-27T01:53:21.596Z,19.15
2022-09-27T01:56:20.421Z,18.58
2022-09-27T01:59:29.639Z,19.00
2022-09-27T02:02:12.313Z,17.94
2022-09-27T02:05:01.398Z,18.68
2022-09-27T02:07:37.852Z,18.69
2022-09-27T02:10:18.396Z,18.67
2022-09-27T02:13:10.828Z,18.62
2022-09-27T02:16:03.972Z,18.96
2022-09-27T02:19:01.898Z,19.46
2022-09-27T02:21:55.973Z,18.83
2022-09-27T02:24:38.028Z,19.56
2022-09-27T02:27:22.488Z,19.02
2022-09-27T02:30:02.303Z,19.22
2022-09-27T02:32:30.851Z,19.09
2022-09-27T02:35:01.855Z,18.62
2022-09-27T02:37:28.838Z,18.56
2022-09-27T02:39:57.263Z,18.74
2022-09-27T02:42:25.108Z,18.27
2022-09-27T02:44:52.267Z,17.77
2022-09-27T02:47:47.502Z,17.41
2022-09-27T02:50:42.625Z,16.04
2022-09-27T02:54:12.130Z,17.87
2022-09-27T02:57:22.990Z,17.01
2022-09-27T03:00:18.096Z,17.16
2022-09-27T03:03:19.337Z,17.93
2022-09-27T03:06:01.740Z,17.19
2022-09-27T03:08:28.739Z,17.03
2022-09-27T03:10:56.322Z,17.77
2022-09-27T03:13:23.309Z,17.89
2022-09-27T03:15:50.531Z,18.03
2022-09-27T03:18:36.062Z,18.26
2022-09-27T03:21:22.894Z,18.05
2022-09-27T03:23:50.030Z,17.91
2022-09-27T03:26:17.192Z,17.83
2022-09-27T03:28:44.064Z,17.60
2022-09-27T03:31:11.034Z,17.42
2022-09-27T03:34:07.131Z,17.36
2022-09-27T03:36:34.936Z,17.46
2022-09-27T03:39:02.753Z,17.03
2022-09-27T03:41:29.945Z,17.09
2022-09-27T03:43:57.913Z,17.23
2022-09-27T03:46:25.948Z,16.99
2022-09-27T03:48:53.280Z,17.41
2022-09-27T03:51:20.195Z,17.92
2022-09-27T03:53:47.870Z,17.47
2022-09-27T03:56:14.823Z,17.17
2022-09-27T03:58:41.720Z,16.53
2022-09-27T04:01:09.313Z,17.74
2022-09-27T04:03:38.194Z,17.47
2022-09-27T04:06:40.328Z,17.60
2022-09-27T04:09:07.290Z,17.17
2022-09-27T04:11:53.407Z,17.35
2022-09-27T04:14:20.787Z,17.54
2022-09-27T04:17:08.228Z,17.26
2022-09-27T04:19:59.565Z,16.59
2022-09-27T04:22:26.547Z,16.50
2022-09-27T04:24:54.018Z,15.96
2022-09-27T04:27:27.518Z,15.98
2022-09-27T04:29:54.485Z,16.83
2022-09-27T04:32:44.920Z,16.09
2022-09-27T04:35:53.854Z,16.31
2022-09-27T04:38:23.909Z,16.57
2022-09-27T04:40:51.902Z,17.16
2022-09-27T04:43:18.992Z,16.43
2022-09-27T04:45:46.359Z,16.91
2022-09-27T04:48:13.520Z,17.34
2022-09-27T04:50:41.221Z,17.05
2022-09-27T04:53:08.507Z,16.90
2022-09-27T04:55:35.836Z,16.91
2022-09-27T04:58:02.798Z,17.84
2022-09-27T05:00:30.272Z,17.32
2022-09-27T05:03:03.943Z,17.47
2022-09-27T05:05:33.427Z,17.00
2022-09-27T05:08:00.410Z,16.67
2022-09-27T05:10:45.532Z,17.37
2022-09-27T05:13:12.696Z,16.79
2022-09-27T05:15:39.755Z,17.22
2022-09-27T05:18:37.755Z,16.96
2022-09-27T05:21:23.272Z,16.17
2022-09-27T05:23:50.592Z,16.27
2022-09-27T05:26:17.504Z,16.52
2022-09-27T05:28:47.312Z,16.13
2022-09-27T05:31:14.745Z,15.32
2022-09-27T05:33:42.646Z,16.55
2022-09-27T05:36:30.863Z,16.20
2022-09-27T05:38:57.786Z,16.32
2022-09-27T05:41:26.139Z,16.89
2022-09-27T05:43:53.227Z,16.50
2022-09-27T05:46:20.223Z,15.94
2022-09-27T05:48:48.367Z,15.50
2022-09-27T05:51:16.459Z,16.56
2022-09-27T05:53:43.708Z,16.29
2022-09-27T05:56:18.625Z,16.36
2022-09-27T05:59:08.799Z,16.84
2022-09-27T06:01:55.919Z,15.78
2022-09-27T06:04:52.697Z,16.82
2022-09-27T06:07:40.645Z,16.17
2022-09-27T06:10:13.527Z,16.15
2022-09-27T06:12:41.845Z,15.88
2022-09-27T06:15:20.218Z,16.56
2022-09-27T06:17:47.507Z,16.95
2022-09-27T06:20:18.433Z,17.03
2022-09-27T06:22:47.014Z,16.64
2022-09-27T06:25:14.581Z,16.57
2022-09-27T06:28:00.443Z,17.27
2022-09-27T06:30:30.313Z,17.16
2022-09-27T06:33:01.695Z,17.24
2022-09-27T06:35:36.152Z,17.12
2022-09-27T06:38:07.105Z,16.87
2022-09-27T06:40:34.168Z,16.13
2022-09-27T06:43:21.266Z,16.82
2022-09-27T06:46:09.536Z,16.94
2022-09-27T06:49:07.511Z,16.86
2022-09-27T06:51:34.473Z,16.44
2022-09-27T06:54:01.415Z,16.52
2022-09-27T06:56:28.314Z,16.66
2022-09-27T06:59:13.623Z,17.43
2022-09-27T07:01:44.706Z,16.78
2022-09-27T07:04:26.837Z,17.23
2022-09-27T07:07:03.751Z,16.54
2022-09-27T07:09:33.944Z,16.18
2022-09-27T07:12:02.120Z,17.10
2022-09-27T07:14:30.686Z,16.30
2022-09-27T07:16:57.997Z,16.77
2022-09-27T07:19:26.766Z,16.34
2022-09-27T07:21:53.871Z,16.59
2022-09-27T07:24:20.802Z,16.12
2022-09-27T07:26:49.423Z,17.17
2022-09-27T07:29:19.095Z,16.69
2022-09-27T07:31:47.512Z,17.02
2022-09-27T07:34:14.930Z,16.53
2022-09-27T07:36:41.883Z,15.31
2022-09-27T07:39:10.193Z,15.51
2022-09-27T07:41:39.222Z,16.50
2022-09-27T07:44:07.975Z,16.80
2022-09-27T07:46:41.043Z,17.06
2022-09-27T07:49:17.757Z,16.35
2022-09-27T07:51:51.621Z,16.65
2022-09-27T07:54:38.882Z,16.32
2022-09-27T07:57:05.876Z,16.30
2022-09-27T07:59:38.329Z,15.61
2022-09-27T08:02:11.190Z,16.80
2022-09-27T08:04:38.155Z,16.34
2022-09-27T08:07:05.066Z,17.16
2022-09-27T08:09:32.194Z,17.09
2022-09-27T08:11:59.065Z,15.69
2022-09-27T08:14:26.454Z,16.96
2022-09-27T08:16:53.422Z,16.75
2022-09-27T08:19:30.042Z,16.76
2022-09-27T08:21:59.602Z,17.29
2022-09-27T08:24:32.995Z,17.00
2022-09-27T08:27:17.875Z,17.50
2022-09-27T08:29:50.672Z,17.43
2022-09-27T08:32:22.309Z,17.64
2022-09-27T08:34:50.125Z,17.85
2022-09-27T08:37:17.166Z,17.00
2022-09-27T08:39:47.749Z,17.42
2022-09-27T08:42:45.702Z,17.87
2022-09-27T08:45:24.834Z,16.94
2022-09-27T08:48:00.967Z,16.31
2022-09-27T08:50:46.760Z,17.80
2022-09-27T08:53:14.587Z,17.81
2022-09-27T08:55:50.464Z,16.64
2022-09-27T08:58:32.363Z,17.44
2022-09-27T09:01:04.602Z,17.41
2022-09-27T09:03:52.255Z,16.22
2022-09-27T09:06:28.952Z,17.47
2022-09-27T09:09:34.000Z,17.38
2022-09-27T09:12:48.024Z,17.75
2022-09-27T09:15:24.461Z,17.56
2022-09-27T09:18:27.022Z,18.00
2022-09-27T09:21:38.470Z,17.92
2022-09-27T09:24:50.638Z,16.74
2022-09-27T09:27:37.007Z,17.04
2022-09-27T09:30:22.184Z,17.91
2022-09-27T09:33:30.509Z,17.80
2022-09-27T09:36:31.085Z,17.41
2022-09-27T09:39:04.213Z,17.90
2022-09-27T09:41:40.666Z,18.35
2022-09-27T09:44:23.688Z,18.25
2022-09-27T09:46:56.911Z,17.41
2022-09-27T09:49:46.692Z,18.02
2022-09-27T09:52:21.241Z,17.34
2022-09-27T09:55:07.800Z,18.56
2022-09-27T09:58:29.624Z,17.87
2022-09-27T10:01:36.326Z,17.74
2022-09-27T10:04:04.143Z,17.80
2022-09-27T10:06:32.005Z,17.82
2022-09-27T10:09:01.028Z,17.64
2022-09-27T10:11:41.558Z,18.54
2022-09-27T10:14:15.643Z,17.57
2022-09-27T10:16:48.674Z,18.39
2022-09-27T10:19:28.390Z,18.19
2022-09-27T10:22:03.094Z,17.78
2022-09-27T10:24:56.079Z,18.19
2022-09-27T10:27:50.720Z,17.49
2022-09-27T10:30:36.593Z,17.57
2022-09-27T10:33:20.093Z,18.11
2022-09-27T10:35:53.661Z,18.18
2022-09-27T10:38:27.446Z,18.63
2022-09-27T10:41:34.379Z,17.58
2022-09-27T10:44:18.011Z,18.40
2022-09-27T10:46:51.283Z,18.80
2022-09-27T10:49:40.754Z,17.50
2022-09-27T10:52:34.031Z,17.47
2022-09-27T10:55:24.890Z,18.13
2022-09-27T10:57:55.465Z,18.14
2022-09-27T11:00:28.309Z,17.82
2022-09-27T11:03:06.365Z,17.71
2022-09-27T11:05:39.601Z,17.74
2022-09-27T11:08:18.677Z,17.70
2022-09-27T11:11:06.725Z,18.05
2022-09-27T11:13:36.262Z,16.99
2022-09-27T11:16:37.782Z,17.53
2022-09-27T11:19:44.925Z,17.93
2022-09-27T11:22:35.643Z,18.05
2022-09-27T11:26:04.134Z,17.99
2022-09-27T11:29:02.841Z,17.92
2022-09-27T11:32:47.768Z,17.79
2022-09-27T11:35:32.507Z,18.35
2022-09-27T11:38:40.942Z,17.81
2022-09-27T11:41:33.662Z,18.72
2022-09-27T11:44:26.727Z,18.71
2022-09-27T11:47:41.719Z,17.90
2022-09-27T11:50:46.929Z,17.62
2022-09-27T11:53:36.701Z,17.99
2022-09-27T11:56:31.602Z,18.87
2022-09-27T11:59:53.797Z,18.44
2022-09-27T12:02:41.956Z,18.37
2022-09-27T12:05:35.208Z,18.22
2022-09-27T12:08:39.681Z,18.05
2022-09-27T12:11:25.742Z,16.18
2022-09-27T12:13:59.575Z,16.56
2022-09-27T12:16:28.098Z,16.95
2022-09-27T12:18:56.203Z,17.23
2022-09-27T12:21:47.896Z,22.92
2022-09-27T12:24:24.135Z,23.10
2022-09-27T12:27:40.910Z,23.39
2022-09-27T12:30:13.692Z,23.64
2022-09-27T12:32:57.635Z,23.95
2022-09-27T12:35:30.033Z,23.17
2022-09-27T12:38:11.675Z,23.95
2022-09-27T12:40:48.335Z,24.16
2022-09-27T12:43:21.580Z,23.51
2022-09-27T12:46:42.013Z,25.70
2022-09-27T12:49:49.825Z,24.63
2022-09-27T12:52:25.670Z,23.18
2022-09-27T12:55:13.132Z,23.96
2022-09-27T12:58:24.431Z,22.07
2022-09-27T13:01:03.661Z,21.42
2022-09-27T13:04:37.125Z,22.08
2022-09-27T13:08:03.727Z,21.71
2022-09-27T13:10:57.768Z,23.75
2022-09-27T13:13:36.215Z,21.38
2022-09-27T13:16:05.966Z,21.07
2022-09-27T13:18:53.488Z,21.66
2022-09-27T13:21:55.568Z,21.39
2022-09-27T13:24:47.299Z,22.94
2022-09-27T13:27:34.625Z,21.42
2022-09-27T13:30:12.589Z,22.44
2022-09-27T13:33:09.224Z,22.11
2022-09-27T13:36:29.772Z,22.18
2022-09-27T13:39:10.411Z,21.97
2022-09-27T13:42:30.461Z,23.70
2022-09-27T13:45:20.779Z,22.67
2022-09-27T13:47:50.502Z,23.45
2022-09-27T13:50:38.166Z,22.20
2022-09-27T13:53:34.030Z,21.85
2022-09-27T13:56:02.790Z,21.97
2022-09-27T13:58:58.250Z,22.66
2022-09-27T14:02:30.255Z,22.08
2022-09-27T14:05:28.150Z,20.98
2022-09-27T14:12:46.452Z,22.43
2022-09-27T14:15:39.008Z,22.22
2022-09-27T14:18:12.551Z,22.38
2022-09-27T14:20:45.365Z,22.26
2022-09-27T14:24:30.802Z,23.04
2022-09-27T14:27:30.255Z,23.35
2022-09-27T14:30:19.272Z,24.41
2022-09-27T14:33:35.056Z,23.77
2022-09-27T14:36:44.959Z,22.75
2022-09-27T14:39:36.519Z,22.14
2022-09-27T14:42:24.528Z,21.90
2022-09-27T14:44:53.148Z,22.39
2022-09-27T14:47:22.974Z,22.39
2022-09-27T14:49:59.850Z,22.86
2022-09-27T14:52:35.954Z,22.67
2022-09-27T14:55:13.822Z,21.96
2022-09-27T14:57:57.567Z,22.41
2022-09-27T15:00:32.229Z,23.37
2022-09-27T15:03:03.282Z,23.48
2022-09-27T15:05:35.897Z,23.10
2022-09-27T15:08:06.413Z,23.11
2022-09-27T15:10:35.994Z,24.22
2022-09-27T15:13:05.223Z,23.44
2022-09-27T15:15:38.311Z,23.27
2022-09-27T15:18:42.337Z,23.82
2022-09-27T15:21:13.462Z,24.10
2022-09-27T15:23:45.470Z,24.15
2022-09-27T15:26:22.436Z,24.44
2022-09-27T15:28:54.931Z,23.94
2022-09-27T15:31:36.502Z,23.48
2022-09-27T15:34:07.594Z,23.66
2022-09-27T15:37:00.526Z,24.13
2022-09-27T15:39:37.802Z,23.74
2022-09-27T15:42:12.667Z,21.84
2022-09-27T15:44:55.074Z,22.59
2022-09-27T15:47:43.204Z,23.22
2022-09-27T15:50:16.149Z,23.40
2022-09-27T15:52:52.901Z,23.47
2022-09-27T15:55:25.215Z,22.85
2022-09-27T15:57:59.839Z,23.05
2022-09-27T16:00:27.107Z,22.56
2022-09-27T16:02:54.280Z,21.49
2022-09-27T16:05:23.868Z,22.64
2022-09-27T16:07:51.697Z,22.15
2022-09-27T16:10:24.004Z,23.00
2022-09-27T16:12:51.197Z,22.94
2022-09-27T16:15:18.315Z,22.28
2022-09-27T16:17:45.350Z,20.54
2022-09-27T16:20:24.995Z,21.07
2022-09-27T16:22:53.884Z,20.52
2022-09-27T16:25:22.276Z,21.42
2022-09-27T16:27:49.439Z,22.17
2022-09-27T16:30:17.631Z,22.05
2022-09-27T16:32:47.745Z,22.13
2022-09-27T16:35:17.671Z,22.01
2022-09-27T16:37:45.027Z,20.88
2022-09-27T16:40:13.664Z,19.68
2022-09-27T16:42:42.245Z,20.47
2022-09-27T16:45:12.758Z,19.57
2022-09-27T16:47:43.809Z,21.96
2022-09-27T16:50:32.911Z,20.91
2022-09-27T16:53:00.322Z,20.68
2022-09-27T16:55:29.300Z,20.25
2022-09-27T16:57:59.331Z,18.56
2022-09-27T17:00:27.722Z,20.12
2022-09-27T17:02:55.045Z,19.66
2022-09-27T17:05:23.159Z,19.55
2022-09-27T17:07:52.142Z,19.45
2022-09-27T17:10:21.173Z,19.79
2022-09-27T17:12:48.847Z,20.08
2022-09-27T17:15:17.286Z,21.05
2022-09-27T17:17:45.387Z,20.73
2022-09-27T17:20:12.693Z,20.16
2022-09-27T17:22:39.824Z,20.14
2022-09-27T17:25:07.607Z,19.87
2022-09-27T17:27:34.601Z,20.19
2022-09-27T17:30:02.076Z,20.98
2022-09-27T17:32:29.097Z,18.23
2022-09-27T17:34:57.321Z,19.20
2022-09-27T17:37:24.751Z,19.73
2022-09-27T17:39:51.747Z,19.99
2022-09-27T17:42:19.055Z,18.83
2022-09-27T17:44:46.492Z,19.81
2022-09-27T17:47:32.367Z,20.14
2022-09-27T17:50:17.628Z,20.59
2022-09-27T17:52:44.650Z,18.95
2022-09-27T17:55:11.753Z,19.52
2022-09-27T17:57:38.782Z,19.86
2022-09-27T18:00:07.344Z,20.40
2022-09-27T18:02:39.805Z,20.07
2022-09-27T18:05:10.057Z,20.32
2022-09-27T18:07:37.429Z,20.13
2022-09-27T18:10:05.357Z,20.34
2022-09-27T18:12:32.953Z,20.48
2022-09-27T18:14:59.963Z,20.07
2022-09-27T18:17:27.964Z,20.98
2022-09-27T18:19:56.938Z,21.04
2022-09-27T18:22:31.059Z,20.84
2022-09-27T18:25:01.045Z,20.98
2022-09-27T18:27:28.804Z,21.16
2022-09-27T18:29:56.121Z,19.47
2022-09-27T18:32:23.090Z,21.02
2022-09-27T18:34:50.133Z,20.73
2022-09-27T18:37:17.137Z,20.84
2022-09-27T18:39:44.251Z,19.05
2022-09-27T18:42:11.326Z,18.51
2022-09-27T18:44:40.907Z,19.23
2022-09-27T18:47:07.986Z,18.29
2022-09-27T18:49:34.982Z,18.84
2022-09-27T18:52:02.763Z,17.99
2022-09-27T18:54:29.787Z,17.79
2022-09-27T18:56:56.849Z,19.00
2022-09-27T18:59:23.996Z,17.67
2022-09-27T19:01:51.322Z,18.21
2022-09-27T19:04:24.951Z,17.72
2022-09-27T19:06:54.368Z,18.48
2022-09-27T19:09:21.588Z,17.81
2022-09-27T19:11:48.768Z,18.91
2022-09-27T19:14:19.516Z,18.02
2022-09-27T19:16:47.960Z,18.89
2022-09-27T19:19:16.967Z,19.30
2022-09-27T19:21:44.733Z,19.08
2022-09-27T19:24:13.819Z,18.94
2022-09-27T19:26:41.117Z,19.25
2022-09-27T19:29:11.489Z,19.60
2022-09-27T19:31:38.763Z,18.63
2022-09-27T19:34:05.869Z,19.52
2022-09-27T19:36:32.854Z,19.30
2022-09-27T19:39:01.251Z,19.09
2022-09-27T19:41:28.384Z,18.42
2022-09-27T19:43:57.506Z,18.86
2022-09-27T19:46:26.072Z,19.38
2022-09-27T19:48:54.105Z,20.68
2022-09-27T19:51:27.449Z,20.60
2022-09-27T19:53:54.964Z,19.63
2022-09-27T19:56:23.170Z,18.60
2022-09-27T19:58:50.869Z,19.61
2022-09-27T20:01:24.389Z,19.52
2022-09-27T20:03:55.217Z,20.18
2022-09-27T20:06:22.483Z,19.93
2022-09-27T20:08:50.218Z,18.99
2022-09-27T20:11:20.452Z,19.12
2022-09-27T20:13:48.957Z,19.01
2022-09-27T20:16:20.579Z,19.45
2022-09-27T20:18:50.877Z,18.59
2022-09-27T20:21:20.345Z,19.74
2022-09-27T20:23:52.945Z,19.75
2022-09-27T20:26:22.675Z,17.91
2022-09-27T20:28:56.990Z,18.92
2022-09-27T20:31:27.786Z,19.81
2022-09-27T20:33:55.294Z,18.03
2022-09-27T20:36:28.458Z,18.36
2022-09-27T20:39:05.232Z,17.83
2022-09-27T20:41:35.632Z,17.86
2022-09-27T20:44:11.986Z,17.23
2022-09-27T20:46:40.903Z,18.48
2022-09-27T20:49:14.511Z,17.53
2022-09-27T20:51:44.876Z,17.58
2022-09-27T20:54:12.902Z,17.22
2022-09-27T20:56:46.239Z,17.80
2022-09-27T20:59:20.388Z,17.48
2022-09-27T21:01:49.924Z,17.70
2022-09-27T21:04:19.191Z,17.98
2022-09-27T21:06:46.242Z,17.99
2022-09-27T21:09:18.989Z,17.80
2022-09-27T21:11:48.711Z,17.18
2022-09-27T21:14:16.251Z,17.42
2022-09-27T21:16:43.440Z,18.19
2022-09-27T21:19:10.646Z,17.75
2022-09-27T21:21:37.642Z,17.20
2022-09-27T21:24:05.063Z,17.38
2022-09-27T21:26:34.071Z,16.37
2022-09-27T21:29:06.714Z,18.13
2022-09-27T21:31:36.243Z,17.00
2022-09-27T21:34:05.054Z,18.23
2022-09-27T21:36:35.076Z,18.05
2022-09-27T21:39:02.381Z,18.37
2022-09-27T21:41:29.328Z,18.84
2022-09-27T21:43:57.235Z,19.76
2022-09-27T21:46:28.287Z,20.23
2022-09-27T21:49:01.985Z,19.07
2022-09-27T21:51:38.663Z,18.21
2022-09-27T21:54:10.307Z,19.21
2022-09-27T21:56:40.001Z,18.37
2022-09-27T21:59:10.799Z,18.80
2022-09-27T22:01:38.177Z,18.81
2022-09-27T22:04:06.661Z,19.13
2022-09-27T22:06:36.838Z,19.22
2022-09-27T22:09:11.554Z,19.25
2022-09-27T22:11:44.223Z,19.12
2022-09-27T22:14:13.077Z,18.18
2022-09-27T22:16:40.256Z,18.55
2022-09-27T22:19:07.537Z,18.71
2022-09-27T22:21:37.779Z,18.04
2022-09-27T22:24:08.561Z,18.61
2022-09-27T22:26:39.384Z,17.89
2022-09-27T22:29:08.124Z,18.95
2022-09-27T22:31:36.189Z,18.13
2022-09-27T22:34:06.613Z,19.18
2022-09-27T22:36:34.502Z,19.39
2022-09-27T22:39:02.143Z,19.01
2022-09-27T22:41:30.316Z,17.59
2022-09-27T22:43:57.999Z,17.61
2022-09-27T22:46:25.397Z,17.52
2022-09-27T22:48:52.664Z,17.13
2022-09-27T22:51:20.290Z,17.41
2022-09-27T22:53:47.374Z,18.27
2022-09-27T22:56:18.863Z,18.88
2022-09-27T22:58:47.554Z,19.25
2022-09-27T23:01:23.763Z,18.84
2022-09-27T23:03:52.958Z,18.82
2022-09-27T23:06:21.778Z,19.22
2022-09-27T23:08:49.903Z,19.04
2022-09-27T23:11:20.744Z,18.94
2022-09-27T23:13:49.766Z,18.72
2022-09-27T23:16:25.163Z,18.90
2022-09-27T23:18:55.365Z,17.92
2022-09-27T23:21:25.880Z,19.07
2022-09-27T23:23:55.275Z,19.05
2022-09-27T23:26:26.091Z,18.13
2022-09-27T23:28:59.592Z,18.51
2022-09-27T23:31:29.817Z,17.96
2022-09-27T23:33:59.099Z,18.00
2022-09-27T23:36:27.574Z,17.80
2022-09-27T23:38:59.354Z,17.93
2022-09-27T23:41:26.425Z,17.87
2022-09-27T23:43:54.198Z,17.68
2022-09-27T23:46:21.388Z,17.99
2022-09-27T23:48:48.658Z,18.11
2022-09-27T23:51:15.756Z,18.01
2022-09-27T23:53:42.950Z,18.62
2022-09-27T23:56:15.173Z,18.19
2022-09-27T23:58:43.982Z,18.36
